^^
Station Historical Data
 
Daily Summary for October 19, 2017 Units:  English    Metric   Both
« Previous Day
Next Day »
Daily Weekly Monthly Yearly Custom
  Current: High: Low: Average:
Temperature: 43.2 °F 47.1 °F 41.4 °F 44.1 °F
Dew Point: 42.4 °F 45.5 °F 40.3 °F 42.8 °F
Humidity: 97% 97% 94% 95%
Wind Speed: 0.0mph 0.0mph 0.0mph 0mph
Wind Gust: 0.0mph 0.0mph - -
WindCalm - - North
Pressure: 30.28 in 30.32 in 30.27 in -
Precipitation: 0.00 in      
Historical Graphs
 
 
Tabular Data for October 19, 2017
Time Temperature Dew Point Pressure Wind Wind Speed Wind Gust Humidity Rainfall Rate (Hourly) solar Conditions
00:04 47.1 °F 45.5 °F 30.32 in Calm     94% 0.00 in meteobridge W/m2
00:14 47.1 °F 45.5 °F 30.31 in Calm     94% 0.00 in meteobridge W/m2
00:19 46.9 °F 45.3 °F 30.32 in Calm     94% 0.00 in meteobridge W/m2
00:24 46.8 °F 45.1 °F 30.32 in Calm     94% 0.00 in meteobridge W/m2
00:29 46.8 °F 45.1 °F 30.31 in Calm     94% 0.00 in meteobridge W/m2
00:34 46.6 °F 45.0 °F 30.31 in Calm     94% 0.00 in meteobridge W/m2
00:39 46.6 °F 45.0 °F 30.31 in Calm     94% 0.00 in meteobridge W/m2
00:44 46.6 °F 45.0 °F 30.31 in Calm     94% 0.00 in meteobridge W/m2
00:45 46.6 °F 45.0 °F 30.31 in Calm     94% 0.00 in meteobridge W/m2
00:50 46.4 °F 44.8 °F 30.31 in Calm     94% 0.00 in meteobridge W/m2
00:55 46.4 °F 44.8 °F 30.31 in Calm     94% 0.00 in meteobridge W/m2
01:00 46.2 °F 44.6 °F 30.31 in Calm     94% 0.00 in meteobridge W/m2
01:05 46.0 °F 44.4 °F 30.31 in Calm     94% 0.00 in meteobridge W/m2
01:10 45.9 °F 44.2 °F 30.31 in Calm     94% 0.00 in meteobridge W/m2
01:15 45.7 °F 44.1 °F 30.31 in Calm     94% 0.00 in meteobridge W/m2
01:20 45.7 °F 44.1 °F 30.31 in Calm     94% 0.00 in meteobridge W/m2
01:25 45.7 °F 44.1 °F 30.31 in Calm     94% 0.00 in meteobridge W/m2
01:30 45.3 °F 43.7 °F 30.31 in Calm     94% 0.00 in meteobridge W/m2
01:35 45.3 °F 44.1 °F 30.31 in Calm     95% 0.00 in meteobridge W/m2
01:40 45.5 °F 44.2 °F 30.31 in Calm     95% 0.00 in meteobridge W/m2
01:45 45.3 °F 44.1 °F 30.30 in Calm     95% 0.00 in meteobridge W/m2
01:50 45.3 °F 44.1 °F 30.30 in Calm     95% 0.00 in meteobridge W/m2
01:55 45.3 °F 44.1 °F 30.30 in Calm     95% 0.00 in meteobridge W/m2
02:00 45.3 °F 44.1 °F 30.30 in Calm     95% 0.00 in meteobridge W/m2
02:05 45.3 °F 44.1 °F 30.30 in Calm     95% 0.00 in meteobridge W/m2
02:10 45.3 °F 44.1 °F 30.30 in Calm     95% 0.00 in meteobridge W/m2
02:15 45.3 °F 44.1 °F 30.30 in Calm     95% 0.00 in meteobridge W/m2
02:21 45.1 °F 43.9 °F 30.30 in Calm     95% 0.00 in meteobridge W/m2
02:26 45.1 °F 43.9 °F 30.30 in Calm     95% 0.00 in meteobridge W/m2
02:31 45.1 °F 43.9 °F 30.30 in Calm     95% 0.00 in meteobridge W/m2
02:36 45.0 °F 43.7 °F 30.29 in Calm     95% 0.00 in meteobridge W/m2
02:41 45.0 °F 43.7 °F 30.29 in Calm     95% 0.00 in meteobridge W/m2
02:46 44.8 °F 43.5 °F 30.29 in Calm     95% 0.00 in meteobridge W/m2
02:51 44.8 °F 43.5 °F 30.29 in Calm     95% 0.00 in meteobridge W/m2
02:56 44.4 °F 43.2 °F 30.29 in Calm     95% 0.00 in meteobridge W/m2
03:01 44.4 °F 43.2 °F 30.29 in Calm     95% 0.00 in meteobridge W/m2
03:06 44.4 °F 43.2 °F 30.29 in Calm     95% 0.00 in meteobridge W/m2
03:11 44.6 °F 43.3 °F 30.29 in Calm     95% 0.00 in meteobridge W/m2
03:16 44.4 °F 43.2 °F 30.29 in Calm     95% 0.00 in meteobridge W/m2
03:21 44.2 °F 43.0 °F 30.29 in Calm     95% 0.00 in meteobridge W/m2
03:26 44.2 °F 43.0 °F 30.28 in Calm     95% 0.00 in meteobridge W/m2
03:31 44.1 °F 42.8 °F 30.28 in Calm     95% 0.00 in meteobridge W/m2
03:36 43.9 °F 42.6 °F 30.29 in Calm     95% 0.00 in meteobridge W/m2
03:41 43.9 °F 42.6 °F 30.28 in Calm     95% 0.00 in meteobridge W/m2
03:46 43.9 °F 42.6 °F 30.28 in Calm     95% 0.00 in meteobridge W/m2
03:51 44.1 °F 43.0 °F 30.28 in Calm     96% 0.00 in meteobridge W/m2
03:56 44.2 °F 43.2 °F 30.28 in Calm     96% 0.00 in meteobridge W/m2
04:01 44.2 °F 43.2 °F 30.28 in Calm     96% 0.00 in meteobridge W/m2
04:06 44.2 °F 43.0 °F 30.27 in Calm     95% 0.00 in meteobridge W/m2
04:11 44.2 °F 43.2 °F 30.27 in Calm     96% 0.00 in meteobridge W/m2
04:16 44.4 °F 43.3 °F 30.27 in Calm     96% 0.00 in meteobridge W/m2
04:21 44.8 °F 43.7 °F 30.27 in Calm     96% 0.00 in meteobridge W/m2
04:26 45.0 °F 43.9 °F 30.27 in Calm     96% 0.00 in meteobridge W/m2
04:31 44.8 °F 43.5 °F 30.27 in Calm     95% 0.00 in meteobridge W/m2
04:37 44.8 °F 43.5 °F 30.27 in Calm     95% 0.00 in meteobridge W/m2
04:42 44.8 °F 43.5 °F 30.27 in Calm     95% 0.00 in meteobridge W/m2
04:47 44.8 °F 43.5 °F 30.27 in Calm     95% 0.00 in meteobridge W/m2
04:52 44.8 °F 43.5 °F 30.28 in Calm     95% 0.00 in meteobridge W/m2
04:57 44.6 °F 43.3 °F 30.28 in Calm     95% 0.00 in meteobridge W/m2
05:02 44.4 °F 43.2 °F 30.28 in Calm     95% 0.00 in meteobridge W/m2
05:07 44.2 °F 43.0 °F 30.28 in Calm     95% 0.00 in meteobridge W/m2
05:12 44.1 °F 42.8 °F 30.28 in Calm     95% 0.00 in meteobridge W/m2
05:17 43.9 °F 42.6 °F 30.28 in Calm     95% 0.00 in meteobridge W/m2
05:22 43.7 °F 42.4 °F 30.28 in Calm     95% 0.00 in meteobridge W/m2
05:27 43.9 °F 42.6 °F 30.28 in Calm     95% 0.00 in meteobridge W/m2
05:32 44.1 °F 43.0 °F 30.28 in Calm     96% 0.00 in meteobridge W/m2
05:37 44.1 °F 42.8 °F 30.28 in Calm     95% 0.00 in meteobridge W/m2
05:42 43.5 °F 42.3 °F 30.28 in Calm     95% 0.00 in meteobridge W/m2
05:47 43.3 °F 42.1 °F 30.28 in Calm     95% 0.00 in meteobridge W/m2
05:52 43.2 °F 41.9 °F 30.28 in Calm     95% 0.00 in meteobridge W/m2
05:57 43.0 °F 41.7 °F 30.28 in Calm     95% 0.00 in meteobridge W/m2
06:02 43.0 °F 41.7 °F 30.28 in Calm     95% 0.00 in meteobridge W/m2
06:08 42.8 °F 41.5 °F 30.28 in Calm     95% 0.00 in meteobridge W/m2
06:13 42.8 °F 41.5 °F 30.28 in Calm     95% 0.00 in meteobridge W/m2
06:18 42.6 °F 41.4 °F 30.28 in Calm     95% 0.00 in meteobridge W/m2
06:23 42.4 °F 41.2 °F 30.28 in Calm     95% 0.00 in meteobridge W/m2
06:28 42.4 °F 41.2 °F 30.28 in Calm     95% 0.00 in meteobridge W/m2
06:33 42.3 °F 41.0 °F 30.28 in Calm     95% 0.00 in meteobridge W/m2
06:38 42.3 °F 41.0 °F 30.28 in Calm     95% 0.00 in meteobridge W/m2
06:43 42.3 °F 41.2 °F 30.28 in Calm     96% 0.00 in meteobridge W/m2
06:48 42.4 °F 41.4 °F 30.28 in Calm     96% 0.00 in meteobridge W/m2
06:53 42.6 °F 41.5 °F 30.27 in Calm     96% 0.00 in meteobridge W/m2
06:58 42.4 °F 41.4 °F 30.27 in Calm     96% 0.00 in meteobridge W/m2
07:03 42.3 °F 41.2 °F 30.27 in Calm     96% 0.00 in meteobridge W/m2
07:08 42.1 °F 41.0 °F 30.27 in Calm     96% 0.00 in meteobridge W/m2
07:13 41.9 °F 40.8 °F 30.27 in Calm     96% 0.00 in meteobridge W/m2
07:18 41.9 °F 40.8 °F 30.28 in Calm     96% 0.00 in meteobridge W/m2
07:23 41.9 °F 40.8 °F 30.28 in Calm     96% 0.00 in meteobridge W/m2
07:28 41.9 °F 40.8 °F 30.28 in Calm     96% 0.00 in meteobridge W/m2
07:33 41.7 °F 40.6 °F 30.27 in Calm     96% 0.00 in meteobridge W/m2
07:38 41.7 °F 40.6 °F 30.27 in Calm     96% 0.00 in meteobridge W/m2
07:43 41.7 °F 40.6 °F 30.27 in Calm     96% 0.00 in meteobridge W/m2
07:48 41.7 °F 40.6 °F 30.27 in Calm     96% 0.00 in meteobridge W/m2
07:53 41.5 °F 40.5 °F 30.27 in Calm     96% 0.00 in meteobridge W/m2
07:58 41.4 °F 40.3 °F 30.27 in Calm     96% 0.00 in meteobridge W/m2
08:03 41.5 °F 40.5 °F 30.27 in Calm     96% 0.00 in meteobridge W/m2
08:08 41.5 °F 40.5 °F 30.28 in Calm     96% 0.00 in meteobridge W/m2
08:13 41.5 °F 40.5 °F 30.28 in Calm     96% 0.00 in meteobridge W/m2
08:18 41.5 °F 40.5 °F 30.28 in Calm     96% 0.00 in meteobridge W/m2
08:23 41.7 °F 40.6 °F 30.28 in Calm     96% 0.00 in meteobridge W/m2
08:28 42.1 °F 41.0 °F 30.28 in Calm     96% 0.00 in meteobridge W/m2
08:33 42.4 °F 41.7 °F 30.28 in Calm     97% 0.00 in meteobridge W/m2
08:38 42.6 °F 41.9 °F 30.29 in Calm     97% 0.00 in meteobridge W/m2
08:43 43.2 °F 42.4 °F 30.28 in Calm     97% 0.00 in meteobridge W/m2
Fairfax, VA, USA
Compliments of Weather Underground - 2.5 mb